createdAt,value
2019-02-22T00:01:32.765Z,9.60
2019-02-22T00:04:01.706Z,9.50
2019-02-22T00:06:30.682Z,9.50
2019-02-22T00:08:59.640Z,9.60
2019-02-22T00:11:28.539Z,9.50
2019-02-22T00:13:57.579Z,9.50
2019-02-22T00:16:26.587Z,9.50
2019-02-22T00:18:55.571Z,9.50
2019-02-22T00:21:24.479Z,9.50
2019-02-22T00:23:54.592Z,9.50
2019-02-22T00:26:25.135Z,9.40
2019-02-22T00:28:54.111Z,9.30
2019-02-22T00:31:23.029Z,9.30
2019-02-22T00:33:51.984Z,9.40
2019-02-22T00:36:21.379Z,9.30
2019-02-22T00:38:59.715Z,9.20
2019-02-22T00:41:28.711Z,9.20
2019-02-22T00:43:57.603Z,9.20
2019-02-22T00:46:26.523Z,9.10
2019-02-22T00:48:55.505Z,9.20
2019-02-22T00:51:25.867Z,9.20
2019-02-22T00:53:54.877Z,9.20
2019-02-22T00:56:23.768Z,9.20
2019-02-22T00:58:52.784Z,9.20
2019-02-22T01:01:21.775Z,9.30
2019-02-22T01:03:50.733Z,9.30
2019-02-22T01:06:19.683Z,9.30
2019-02-22T01:08:48.775Z,9.30
2019-02-22T01:11:19.172Z,9.50
2019-02-22T01:13:48.205Z,9.60
2019-02-22T01:16:17.084Z,9.70
2019-02-22T01:18:45.994Z,9.80
2019-02-22T01:21:16.380Z,9.80
2019-02-22T01:23:45.329Z,9.80
2019-02-22T01:26:15.933Z,9.90
2019-02-22T01:28:51.423Z,9.90
2019-02-22T01:31:20.342Z,9.90
2019-02-22T01:33:49.299Z,9.90
2019-02-22T01:36:18.234Z,9.90
2019-02-22T01:38:47.127Z,9.90
2019-02-22T01:41:16.142Z,10.00
2019-02-22T01:43:45.045Z,10.00
2019-02-22T01:46:13.947Z,9.90
2019-02-22T01:48:42.930Z,10.00
2019-02-22T01:51:19.659Z,9.90
2019-02-22T01:53:48.634Z,10.00
2019-02-22T01:56:23.986Z,10.00
2019-02-22T01:58:52.956Z,10.00
2019-02-22T02:01:21.839Z,9.90
2019-02-22T02:03:53.664Z,9.90
2019-02-22T02:06:25.710Z,9.90
2019-02-22T02:08:54.691Z,9.90
2019-02-22T02:11:23.651Z,10.00
2019-02-22T02:13:52.608Z,10.00
2019-02-22T02:16:21.563Z,10.10
2019-02-22T02:18:50.467Z,10.10
2019-02-22T02:21:19.384Z,10.20
2019-02-22T02:23:48.291Z,10.30
2019-02-22T02:26:17.265Z,10.30
2019-02-22T02:28:51.484Z,10.30
2019-02-22T02:31:19.446Z,10.30
2019-02-22T02:33:48.427Z,10.40
2019-02-22T02:36:17.257Z,10.40
2019-02-22T02:38:46.203Z,10.50
2019-02-22T02:41:16.772Z,10.50
2019-02-22T02:43:45.658Z,10.50
2019-02-22T02:46:14.611Z,10.50
2019-02-22T02:48:43.606Z,10.50
2019-02-22T02:51:12.496Z,10.40
2019-02-22T02:53:41.475Z,10.40
2019-02-22T02:56:10.371Z,10.50
2019-02-22T02:58:39.313Z,10.50
2019-02-22T03:01:08.252Z,10.50
2019-02-22T03:03:37.173Z,10.50
2019-02-22T03:06:07.679Z,10.50
2019-02-22T03:08:36.606Z,10.50
2019-02-22T03:11:05.510Z,10.50
2019-02-22T03:13:39.025Z,10.50
2019-02-22T03:16:08.035Z,10.60
2019-02-22T03:18:37.007Z,10.50
2019-02-22T03:21:05.964Z,10.60
2019-02-22T03:23:34.798Z,10.50
2019-02-22T03:26:03.774Z,10.50
2019-02-22T03:28:35.720Z,10.50
2019-02-22T03:31:04.657Z,10.50
2019-02-22T03:33:36.640Z,10.50
2019-02-22T03:36:05.579Z,10.50
2019-02-22T03:38:34.560Z,10.50
2019-02-22T03:41:03.450Z,10.50
2019-02-22T03:43:32.374Z,10.50
2019-02-22T03:46:01.361Z,10.50
2019-02-22T03:48:30.273Z,10.50
2019-02-22T03:50:59.135Z,10.50
2019-02-22T03:53:29.676Z,10.50
2019-02-22T03:55:58.585Z,10.50
2019-02-22T03:58:27.519Z,10.50
2019-02-22T04:00:56.599Z,10.50
2019-02-22T04:03:25.464Z,10.50
2019-02-22T04:05:54.445Z,10.40
2019-02-22T04:08:23.427Z,10.50
2019-02-22T04:10:52.400Z,10.40
2019-02-22T04:13:21.248Z,10.40
2019-02-22T04:15:50.241Z,10.50
2019-02-22T04:18:19.236Z,10.50
2019-02-22T04:20:48.154Z,10.50
2019-02-22T04:23:17.146Z,10.40
2019-02-22T04:25:46.079Z,10.40
2019-02-22T04:28:14.997Z,10.40
2019-02-22T04:30:45.098Z,10.40
2019-02-22T04:33:14.011Z,10.40
2019-02-22T04:35:42.897Z,10.40
2019-02-22T04:38:11.867Z,10.40
2019-02-22T04:40:40.790Z,10.40
2019-02-22T04:43:09.735Z,10.40
2019-02-22T04:45:38.695Z,10.40
2019-02-22T04:48:07.645Z,10.30
2019-02-22T04:50:36.610Z,10.40
2019-02-22T04:53:07.095Z,10.40
2019-02-22T04:55:37.768Z,10.40
2019-02-22T04:58:06.617Z,10.40
2019-02-22T05:00:35.623Z,10.30
2019-02-22T05:03:04.496Z,10.30
2019-02-22T05:05:33.461Z,10.30
2019-02-22T05:08:02.470Z,10.30
2019-02-22T05:10:31.315Z,10.40
2019-02-22T05:13:00.268Z,10.30
2019-02-22T05:15:29.187Z,10.30
2019-02-22T05:17:58.146Z,10.30
2019-02-22T05:20:31.134Z,10.20
2019-02-22T05:23:05.309Z,10.10
2019-02-22T05:25:33.786Z,10.20
2019-02-22T05:28:02.720Z,10.20
2019-02-22T05:30:36.448Z,10.30
2019-02-22T05:33:04.328Z,10.20
2019-02-22T05:35:33.307Z,10.40
2019-02-22T05:38:02.237Z,10.20
2019-02-22T05:40:31.236Z,10.20
2019-02-22T05:43:00.355Z,10.30
2019-02-22T05:45:29.338Z,10.20
2019-02-22T05:48:00.935Z,10.30
2019-02-22T05:50:29.923Z,10.30
2019-02-22T05:52:58.827Z,10.30
2019-02-22T05:55:27.753Z,10.40
2019-02-22T05:57:58.198Z,10.50
2019-02-22T06:00:27.148Z,10.40
2019-02-22T06:02:57.562Z,10.40
2019-02-22T06:05:26.597Z,10.50
2019-02-22T06:07:55.554Z,10.40
2019-02-22T06:10:24.539Z,10.40
2019-02-22T06:12:53.442Z,10.40
2019-02-22T06:15:22.473Z,10.40
2019-02-22T06:17:51.329Z,10.40
2019-02-22T06:20:20.301Z,10.30
2019-02-22T06:22:49.203Z,10.40
2019-02-22T06:25:18.310Z,10.50
2019-02-22T06:27:47.168Z,10.40
2019-02-22T06:30:16.074Z,10.40
2019-02-22T06:32:45.060Z,10.50
2019-02-22T06:35:13.974Z,10.50
2019-02-22T06:37:43.013Z,10.50
2019-02-22T06:40:11.984Z,10.60
2019-02-22T06:42:45.765Z,10.50
2019-02-22T06:45:12.500Z,10.60
2019-02-22T06:47:41.428Z,10.60
2019-02-22T06:50:10.368Z,10.70
2019-02-22T06:52:39.333Z,10.60
2019-02-22T06:55:08.294Z,10.60
2019-02-22T06:57:37.729Z,10.70
2019-02-22T07:00:12.081Z,10.60
2019-02-22T07:02:41.348Z,10.60
2019-02-22T07:05:10.343Z,10.60
2019-02-22T07:07:40.728Z,10.50
2019-02-22T07:10:12.436Z,10.70
2019-02-22T07:12:43.727Z,10.60
2019-02-22T07:15:13.298Z,10.60
2019-02-22T07:17:42.471Z,10.60
2019-02-22T07:20:13.104Z,10.60
2019-02-22T07:22:42.781Z,10.60
2019-02-22T07:25:15.407Z,10.70
2019-02-22T07:27:44.960Z,10.70
2019-02-22T07:30:16.629Z,10.80
2019-02-22T07:32:46.063Z,10.90
2019-02-22T07:35:15.001Z,10.80
2019-02-22T07:37:44.348Z,10.80
2019-02-22T07:40:13.643Z,10.90
2019-02-22T07:42:42.893Z,10.80
2019-02-22T07:45:28.489Z,10.90
2019-02-22T07:47:58.422Z,11.00
2019-02-22T07:50:27.472Z,11.00
2019-02-22T07:52:57.176Z,11.10
2019-02-22T07:55:27.498Z,11.20
2019-02-22T07:57:57.550Z,11.30
2019-02-22T08:00:30.822Z,11.40
2019-02-22T08:03:01.598Z,11.50
2019-02-22T08:05:30.772Z,11.60
2019-02-22T08:08:00.943Z,11.60
2019-02-22T08:10:30.584Z,11.60
2019-02-22T08:13:00.411Z,11.80
2019-02-22T08:15:29.688Z,11.90
2019-02-22T08:18:01.908Z,12.00
2019-02-22T08:20:31.674Z,12.20
2019-02-22T08:23:02.184Z,12.20
2019-02-22T08:25:37.235Z,12.10
2019-02-22T08:28:07.515Z,12.00
2019-02-22T08:30:39.383Z,12.20
2019-02-22T08:33:13.980Z,12.20
2019-02-22T08:35:44.231Z,12.30
2019-02-22T08:38:13.201Z,12.50
2019-02-22T08:40:41.870Z,12.50
2019-02-22T08:43:10.703Z,12.40
2019-02-22T08:45:39.391Z,12.30
2019-02-22T08:48:08.174Z,12.30
2019-02-22T08:50:37.184Z,12.40
2019-02-22T08:53:06.287Z,12.50
2019-02-22T08:55:36.739Z,12.50
2019-02-22T08:58:05.533Z,12.70
2019-02-22T09:00:34.361Z,12.90
2019-02-22T09:03:03.446Z,13.20
2019-02-22T09:05:33.627Z,13.30
2019-02-22T09:08:02.572Z,13.40
2019-02-22T09:10:33.303Z,13.30
2019-02-22T09:13:02.098Z,13.30
2019-02-22T09:15:31.419Z,13.40
2019-02-22T09:18:00.255Z,13.50
2019-02-22T09:20:29.276Z,13.50
2019-02-22T09:22:58.159Z,13.60
2019-02-22T09:25:26.969Z,13.80
2019-02-22T09:27:56.176Z,13.90
2019-02-22T09:30:25.056Z,13.90
2019-02-22T09:32:53.918Z,13.90
2019-02-22T09:35:22.899Z,13.80
2019-02-22T09:37:52.081Z,13.80
2019-02-22T09:40:21.511Z,13.60
2019-02-22T09:42:51.012Z,13.60
2019-02-22T09:45:19.941Z,13.70
2019-02-22T09:47:49.420Z,14.20
2019-02-22T09:50:18.335Z,15.00
2019-02-22T09:52:47.225Z,15.40
2019-02-22T09:55:16.719Z,15.50
2019-02-22T09:57:46.013Z,16.00
2019-02-22T10:00:15.356Z,16.80
2019-02-22T10:02:45.032Z,22.10
2019-02-22T10:05:14.705Z,25.50
2019-02-22T10:07:43.608Z,25.60
2019-02-22T10:10:12.749Z,24.30
2019-02-22T10:12:41.489Z,22.60
2019-02-22T10:15:10.822Z,21.20
2019-02-22T10:17:39.708Z,20.10
2019-02-22T10:20:09.974Z,19.10
2019-02-22T10:22:38.679Z,18.30
2019-02-22T10:25:08.163Z,17.80
2019-02-22T10:27:37.336Z,17.90
2019-02-22T10:30:09.332Z,21.20
2019-02-22T10:32:38.116Z,27.00
2019-02-22T10:35:07.834Z,27.00
2019-02-22T10:37:36.960Z,24.00
2019-02-22T10:40:08.112Z,25.40
2019-02-22T10:42:36.822Z,29.20
2019-02-22T10:45:09.071Z,28.20
2019-02-22T10:47:37.808Z,25.50
2019-02-22T10:50:08.403Z,25.30
2019-02-22T10:52:37.155Z,28.10
2019-02-22T10:55:11.323Z,28.30
2019-02-22T10:57:40.228Z,25.30
2019-02-22T11:00:12.589Z,22.90
2019-02-22T11:02:42.654Z,21.40
2019-02-22T11:05:14.215Z,20.20
2019-02-22T11:07:42.869Z,19.80
2019-02-22T11:10:14.252Z,20.10
2019-02-22T11:12:43.049Z,21.80
2019-02-22T11:15:12.908Z,21.00
2019-02-22T11:17:42.804Z,19.90
2019-02-22T11:20:13.033Z,19.00
2019-02-22T11:22:41.829Z,18.10
2019-02-22T11:25:12.949Z,17.70
2019-02-22T11:27:41.805Z,17.20
2019-02-22T11:30:15.496Z,16.70
2019-02-22T11:32:44.369Z,16.40
2019-02-22T11:35:13.586Z,16.10
2019-02-22T11:37:42.367Z,15.70
2019-02-22T11:40:11.928Z,15.50
2019-02-22T11:42:40.663Z,15.40
2019-02-22T11:45:10.345Z,15.30
2019-02-22T11:47:39.109Z,15.20
2019-02-22T11:50:10.797Z,15.30
2019-02-22T11:52:39.712Z,15.20
2019-02-22T11:55:09.489Z,15.40
2019-02-22T11:57:38.343Z,15.40
2019-02-22T12:00:11.469Z,15.30
2019-02-22T12:02:40.059Z,15.40
2019-02-22T12:05:08.837Z,15.40
2019-02-22T12:07:37.579Z,15.50
2019-02-22T12:10:08.138Z,15.50
2019-02-22T12:12:36.899Z,15.40
2019-02-22T12:15:09.763Z,15.50
2019-02-22T12:17:38.556Z,15.60
2019-02-22T12:20:09.216Z,16.50
2019-02-22T12:22:38.112Z,15.60
2019-02-22T12:25:09.083Z,15.60
2019-02-22T12:27:37.707Z,15.40
2019-02-22T12:30:09.460Z,15.50
2019-02-22T12:32:39.564Z,15.50
2019-02-22T12:35:08.472Z,15.50
2019-02-22T12:37:37.138Z,15.60
2019-02-22T12:40:08.796Z,15.70
2019-02-22T12:42:37.448Z,15.80
2019-02-22T12:45:08.791Z,16.10
2019-02-22T12:47:37.623Z,16.60
2019-02-22T12:50:11.238Z,17.50
2019-02-22T12:52:39.996Z,19.00
2019-02-22T12:55:11.809Z,19.90
2019-02-22T12:57:40.472Z,19.80
2019-02-22T13:00:17.387Z,20.60
2019-02-22T13:02:46.182Z,21.70
2019-02-22T13:05:17.447Z,21.80
2019-02-22T13:07:46.184Z,21.20
2019-02-22T13:10:14.911Z,20.30
2019-02-22T13:12:43.588Z,19.60
2019-02-22T13:15:14.425Z,19.00
2019-02-22T13:17:43.149Z,19.40
2019-02-22T13:20:11.911Z,19.80
2019-02-22T13:22:40.710Z,19.30
2019-02-22T13:25:10.673Z,19.00
2019-02-22T13:27:39.398Z,18.60
2019-02-22T13:30:11.246Z,18.30
2019-02-22T13:32:40.054Z,18.00
2019-02-22T13:35:10.951Z,17.70
2019-02-22T13:37:39.406Z,18.20
2019-02-22T13:40:10.946Z,18.70
2019-02-22T13:42:39.690Z,19.20
2019-02-22T13:45:10.858Z,19.40
2019-02-22T13:47:39.699Z,19.70
2019-02-22T13:50:11.477Z,19.70
2019-02-22T13:52:40.179Z,19.90
2019-02-22T13:55:09.634Z,19.90
2019-02-22T13:57:38.291Z,19.70
2019-02-22T14:00:10.358Z,19.50
2019-02-22T14:02:39.064Z,19.10
2019-02-22T14:05:08.372Z,18.90
2019-02-22T14:07:37.160Z,18.70
2019-02-22T14:10:06.403Z,18.60
2019-02-22T14:12:35.036Z,19.40
2019-02-22T14:15:04.201Z,20.10
2019-02-22T14:17:32.999Z,19.90
2019-02-22T14:20:01.807Z,19.50
2019-02-22T14:22:30.511Z,19.30
2019-02-22T14:24:59.206Z,20.70
2019-02-22T14:27:27.932Z,20.70
2019-02-22T14:29:56.696Z,20.30
2019-02-22T14:32:25.396Z,19.90
2019-02-22T14:34:54.140Z,19.40
2019-02-22T14:37:22.853Z,19.00
2019-02-22T14:40:02.357Z,18.40
2019-02-22T14:42:22.080Z,17.50
2019-02-22T14:44:50.692Z,17.10
2019-02-22T14:47:19.361Z,16.70
2019-02-22T14:49:48.594Z,16.40
2019-02-22T14:52:17.237Z,16.10
2019-02-22T14:54:45.995Z,15.90
2019-02-22T14:57:14.763Z,15.60
2019-02-22T14:59:43.670Z,15.50
2019-02-22T15:02:12.558Z,15.40
2019-02-22T15:04:41.385Z,15.20
2019-02-22T15:07:10.158Z,15.10
2019-02-22T15:09:38.870Z,14.90
2019-02-22T15:12:07.648Z,15.10
2019-02-22T15:14:36.388Z,15.20
2019-02-22T15:17:15.312Z,15.30
2019-02-22T15:19:44.033Z,15.40
2019-02-22T15:22:12.754Z,15.40
2019-02-22T15:24:41.495Z,15.40
2019-02-22T15:27:10.268Z,15.30
2019-02-22T15:29:38.893Z,15.80
2019-02-22T15:32:07.700Z,16.30
2019-02-22T15:34:36.308Z,16.80
2019-02-22T15:37:05.084Z,16.90
2019-02-22T15:39:33.738Z,16.80
2019-02-22T15:42:02.411Z,16.50
2019-02-22T15:44:31.358Z,16.40
2019-02-22T15:47:11.079Z,16.20
2019-02-22T15:49:30.505Z,16.10
2019-02-22T15:51:59.249Z,15.90
2019-02-22T15:54:27.962Z,15.70
2019-02-22T15:56:56.609Z,15.50
2019-02-22T15:59:25.369Z,15.30
2019-02-22T16:01:55.886Z,15.10
2019-02-22T16:04:29.124Z,15.00
2019-02-22T16:06:57.840Z,14.90
2019-02-22T16:09:26.468Z,14.80
2019-02-22T16:11:55.259Z,14.60
2019-02-22T16:14:24.007Z,14.30
2019-02-22T16:16:53.045Z,14.30
2019-02-22T16:19:21.794Z,14.20
2019-02-22T16:21:50.425Z,14.20
2019-02-22T16:24:19.194Z,14.10
2019-02-22T16:26:49.484Z,14.00
2019-02-22T16:29:18.159Z,13.80
2019-02-22T16:31:47.089Z,13.70
2019-02-22T16:34:15.788Z,13.70
2019-02-22T16:36:44.491Z,13.70
2019-02-22T16:39:13.326Z,13.60
2019-02-22T16:41:42.100Z,13.60
2019-02-22T16:44:10.680Z,13.60
2019-02-22T16:46:39.349Z,13.50
2019-02-22T16:49:08.826Z,13.40
2019-02-22T16:51:37.562Z,13.30
2019-02-22T16:54:06.333Z,13.40
2019-02-22T16:56:35.047Z,13.20
2019-02-22T16:59:03.836Z,13.10
2019-02-22T17:01:32.565Z,13.20
2019-02-22T17:04:01.172Z,13.20
2019-02-22T17:06:29.891Z,13.10
2019-02-22T17:08:58.559Z,13.10
2019-02-22T17:14:14.962Z,13.00
2019-02-22T17:17:03.015Z,13.00
2019-02-22T17:19:44.500Z,13.10
2019-02-22T17:22:13.215Z,12.90
2019-02-22T17:24:56.200Z,12.90
2019-02-22T17:27:44.258Z,12.80
2019-02-22T17:30:26.534Z,12.80
2019-02-22T17:33:14.532Z,12.60
2019-02-22T17:35:56.602Z,12.60
2019-02-22T17:38:44.536Z,12.50
2019-02-22T17:41:26.308Z,12.50
2019-02-22T17:44:14.359Z,12.60
2019-02-22T17:46:57.913Z,12.60
2019-02-22T17:49:46.049Z,12.50
2019-02-22T17:52:14.732Z,12.50
2019-02-22T17:55:03.017Z,12.30
2019-02-22T17:57:31.692Z,12.30
2019-02-22T18:00:24.337Z,12.30
2019-02-22T18:03:12.292Z,12.30
2019-02-22T18:05:54.275Z,12.20
2019-02-22T18:08:42.241Z,12.10
2019-02-22T18:11:23.797Z,12.00
2019-02-22T18:14:11.915Z,12.00
2019-02-22T18:16:53.345Z,11.90
2019-02-22T18:19:41.354Z,11.80
2019-02-22T18:22:26.101Z,11.70
2019-02-22T18:25:13.216Z,11.80
2019-02-22T18:27:54.666Z,11.70
2019-02-22T18:30:42.711Z,11.70
2019-02-22T18:33:24.173Z,11.60
2019-02-22T18:35:52.892Z,11.60
2019-02-22T18:38:40.972Z,11.40
2019-02-22T18:41:22.707Z,11.30
2019-02-22T18:44:04.859Z,11.30
2019-02-22T18:46:52.877Z,11.20
2019-02-22T18:49:34.796Z,11.20
2019-02-22T18:52:22.861Z,11.10
2019-02-22T18:55:10.976Z,11.10
2019-02-22T18:57:59.023Z,10.90
2019-02-22T19:00:40.954Z,11.10
2019-02-22T19:03:28.925Z,11.10
2019-02-22T19:06:11.028Z,11.10
2019-02-22T19:08:39.892Z,11.10
2019-02-22T19:11:08.572Z,11.00
2019-02-22T19:13:56.603Z,10.90
2019-02-22T19:16:39.818Z,10.80
2019-02-22T19:19:27.872Z,10.70
2019-02-22T19:22:09.525Z,10.70
2019-02-22T19:24:57.490Z,10.60
2019-02-22T19:27:39.516Z,10.60
2019-02-22T19:30:27.639Z,10.50
2019-02-22T19:33:09.457Z,10.40
2019-02-22T19:35:51.278Z,10.50
2019-02-22T19:38:39.311Z,10.40
2019-02-22T19:41:20.630Z,10.40
2019-02-22T19:44:08.681Z,10.30
2019-02-22T19:46:50.572Z,10.20
2019-02-22T19:49:38.608Z,10.30
2019-02-22T19:52:20.665Z,10.30
2019-02-22T19:55:28.031Z,10.20
2019-02-22T19:58:16.002Z,10.30
2019-02-22T20:01:04.169Z,10.30
2019-02-22T20:03:46.084Z,10.30
2019-02-22T20:06:28.017Z,10.30
2019-02-22T20:09:16.069Z,10.30
2019-02-22T20:11:57.303Z,10.30
2019-02-22T20:14:45.284Z,10.30
2019-02-22T20:17:27.348Z,10.20
2019-02-22T20:20:15.864Z,10.20
2019-02-22T20:22:57.696Z,10.20
2019-02-22T20:25:45.732Z,10.20
2019-02-22T20:28:14.379Z,10.20
2019-02-22T20:30:43.844Z,10.20
2019-02-22T20:33:12.531Z,10.20
2019-02-22T20:35:41.115Z,10.20
2019-02-22T20:38:29.176Z,10.20
2019-02-22T20:41:17.091Z,10.10
2019-02-22T20:43:45.715Z,10.10
2019-02-22T20:46:14.485Z,10.10
2019-02-22T20:49:02.501Z,10.10
2019-02-22T20:51:44.348Z,10.10
2019-02-22T20:54:32.327Z,10.00
2019-02-22T20:57:13.933Z,10.00
2019-02-22T21:00:01.969Z,10.00
2019-02-22T21:02:43.505Z,9.90
2019-02-22T21:05:12.450Z,9.80
2019-02-22T21:07:54.560Z,9.80
2019-02-22T21:10:42.614Z,9.70
2019-02-22T21:13:24.499Z,9.70
2019-02-22T21:16:12.537Z,9.70
2019-02-22T21:18:41.243Z,9.60
2019-02-22T21:21:29.163Z,9.60
2019-02-22T21:24:11.241Z,9.50
2019-02-22T21:26:59.303Z,9.30
2019-02-22T21:29:41.048Z,9.40
2019-02-22T21:32:29.101Z,9.40
2019-02-22T21:35:17.122Z,9.30
2019-02-22T21:38:05.690Z,9.20
2019-02-22T21:40:47.207Z,9.20
2019-02-22T21:43:35.213Z,9.20
2019-02-22T21:46:17.322Z,9.20
2019-02-22T21:49:05.346Z,9.10
2019-02-22T21:51:47.413Z,9.10
2019-02-22T21:54:35.471Z,9.00
2019-02-22T21:57:17.407Z,9.00
2019-02-22T22:00:26.128Z,9.00
2019-02-22T22:03:07.805Z,9.00
2019-02-22T22:05:55.779Z,9.00
2019-02-22T22:08:37.741Z,9.00
2019-02-22T22:11:25.705Z,8.90
2019-02-22T22:14:07.761Z,8.90
2019-02-22T22:16:55.731Z,8.90
2019-02-22T22:19:36.824Z,8.70
2019-02-22T22:22:24.835Z,8.70
2019-02-22T22:25:07.965Z,8.70
2019-02-22T22:27:55.935Z,8.60
2019-02-22T22:30:37.816Z,8.60
2019-02-22T22:33:25.840Z,8.60
2019-02-22T22:36:07.451Z,8.40
2019-02-22T22:38:55.586Z,8.40
2019-02-22T22:41:37.436Z,8.30
2019-02-22T22:44:25.433Z,8.40
2019-02-22T22:47:07.501Z,8.40
2019-02-22T22:49:36.156Z,8.40
2019-02-22T22:52:24.188Z,8.30
2019-02-22T22:55:12.187Z,8.30
2019-02-22T22:58:00.279Z,8.30
2019-02-22T23:01:05.981Z,8.20
2019-02-22T23:03:54.031Z,8.20
2019-02-22T23:06:36.043Z,8.10
2019-02-22T23:09:24.252Z,8.10
2019-02-22T23:11:53.180Z,8.10
2019-02-22T23:14:21.959Z,8.00
2019-02-22T23:17:09.970Z,7.90
2019-02-22T23:19:52.021Z,7.90
2019-02-22T23:22:40.024Z,7.90
2019-02-22T23:25:22.190Z,7.80
2019-02-22T23:28:10.256Z,7.70
2019-02-22T23:30:58.240Z,7.70
2019-02-22T23:33:46.319Z,7.60
2019-02-22T23:36:27.602Z,7.60
2019-02-22T23:38:56.543Z,7.50
2019-02-22T23:41:44.552Z,7.40
2019-02-22T23:44:26.266Z,7.30
2019-02-22T23:47:14.248Z,7.30
2019-02-22T23:49:56.300Z,7.30
2019-02-22T23:52:44.360Z,6.20
2019-02-22T23:55:26.283Z,7.10
2019-02-22T23:58:07.761Z,7.20
